createdAt,value
2022-12-25T00:02:05.653Z,10.20
2022-12-25T00:05:04.743Z,10.75
2022-12-25T00:07:26.757Z,9.93
2022-12-25T00:10:21.068Z,10.57
2022-12-25T00:12:54.909Z,10.57
2022-12-25T00:15:27.607Z,11.57
2022-12-25T00:18:20.417Z,11.65
2022-12-25T00:21:07.239Z,9.98
2022-12-25T00:23:44.612Z,10.50
2022-12-25T00:26:22.748Z,10.43
2022-12-25T00:28:57.627Z,10.80
2022-12-25T00:31:32.805Z,10.90
2022-12-25T00:34:04.877Z,11.57
2022-12-25T00:36:45.148Z,11.35
2022-12-25T00:39:20.790Z,10.90
2022-12-25T00:42:25.112Z,11.02
2022-12-25T00:45:11.440Z,11.10
2022-12-25T00:47:44.917Z,10.13
2022-12-25T00:50:19.627Z,12.15
2022-12-25T00:52:54.934Z,10.60
2022-12-25T00:55:27.052Z,11.50
2022-12-25T00:58:18.201Z,12.00
2022-12-25T01:00:53.352Z,11.60
2022-12-25T01:03:32.064Z,12.30
2022-12-25T01:06:16.396Z,13.10
2022-12-25T01:09:11.166Z,13.55
2022-12-25T01:11:40.204Z,13.80
2022-12-25T01:14:08.102Z,13.23
2022-12-25T01:16:37.205Z,14.48
2022-12-25T01:19:05.001Z,14.32
2022-12-25T01:21:34.331Z,15.88
2022-12-25T01:24:02.555Z,14.95
2022-12-25T01:26:30.384Z,15.35
2022-12-25T01:28:58.128Z,15.50
2022-12-25T01:31:28.372Z,16.45
2022-12-25T01:34:03.087Z,15.75
2022-12-25T01:36:31.609Z,17.30
2022-12-25T01:39:10.594Z,16.75
2022-12-25T01:41:58.428Z,16.67
2022-12-25T01:44:45.537Z,17.17
2022-12-25T01:47:21.798Z,16.83
2022-12-25T01:50:28.123Z,18.08
2022-12-25T01:53:10.373Z,18.55
2022-12-25T01:55:58.273Z,19.20
2022-12-25T01:58:39.745Z,18.42
2022-12-25T02:01:13.198Z,17.38
2022-12-25T02:03:46.623Z,18.20
2022-12-25T02:06:38.253Z,16.60
2022-12-25T02:09:18.971Z,18.42
2022-12-25T02:12:11.990Z,18.73
2022-12-25T02:14:48.164Z,19.10
2022-12-25T02:17:58.577Z,17.10
2022-12-25T02:20:51.836Z,17.05
2022-12-25T02:23:48.505Z,17.58
2022-12-25T02:26:46.963Z,17.30
2022-12-25T02:29:43.556Z,15.77
2022-12-25T02:33:14.837Z,15.13
2022-12-25T02:36:17.887Z,15.32
2022-12-25T02:42:59.773Z,14.15
2022-12-25T02:46:30.188Z,13.77
2022-12-25T02:49:43.639Z,12.40
2022-12-25T02:53:26.696Z,12.73
2022-12-25T02:56:35.087Z,10.77
2022-12-25T03:00:22.049Z,11.32
2022-12-25T03:03:37.616Z,10.00
2022-12-25T03:07:02.156Z,10.00
2022-12-25T03:10:36.407Z,9.40
2022-12-25T03:13:17.951Z,8.60
2022-12-25T03:16:09.623Z,9.38
2022-12-25T03:18:59.570Z,8.07
2022-12-25T03:22:04.009Z,8.88
2022-12-25T03:25:13.091Z,8.68
2022-12-25T03:31:16.125Z,8.25
2022-12-25T03:34:59.992Z,8.00
2022-12-25T03:38:17.642Z,6.70
2022-12-25T03:41:32.881Z,6.20
2022-12-25T03:44:31.653Z,5.82
2022-12-25T03:47:52.052Z,6.57
2022-12-25T03:51:07.793Z,5.97
2022-12-25T03:54:07.110Z,6.45
2022-12-25T03:57:01.060Z,5.93
2022-12-25T04:02:42.369Z,6.38
2022-12-25T04:05:33.803Z,6.60
2022-12-25T04:08:22.743Z,6.28
2022-12-25T04:11:09.403Z,6.63
2022-12-25T04:13:58.633Z,6.43
2022-12-25T04:16:47.411Z,6.97
2022-12-25T04:19:33.796Z,6.07
2022-12-25T04:22:23.501Z,7.00
2022-12-25T04:25:10.097Z,6.95
2022-12-25T04:31:51.716Z,7.15
2022-12-25T04:35:01.163Z,7.60
2022-12-25T04:37:42.508Z,7.07
2022-12-25T04:40:32.604Z,6.80
2022-12-25T04:46:41.199Z,6.38
2022-12-25T04:49:17.439Z,7.47
2022-12-25T04:52:14.225Z,6.93
2022-12-25T04:55:32.404Z,5.80
2022-12-25T04:58:28.544Z,6.88
2022-12-25T05:01:21.772Z,5.95
2022-12-25T05:04:17.493Z,6.57
2022-12-25T05:06:55.937Z,6.63
2022-12-25T05:09:38.451Z,6.30
2022-12-25T05:12:45.853Z,6.28
2022-12-25T05:15:32.567Z,6.80
2022-12-25T05:18:16.472Z,6.55
2022-12-25T05:21:24.545Z,6.47
2022-12-25T05:23:57.107Z,7.40
2022-12-25T05:26:47.191Z,7.60
2022-12-25T05:29:27.327Z,6.95
2022-12-25T05:32:48.159Z,7.70
2022-12-25T05:35:28.506Z,7.57
2022-12-25T05:38:08.474Z,7.53
2022-12-25T05:43:51.683Z,7.80
2022-12-25T05:49:53.601Z,7.20
2022-12-25T05:52:23.109Z,7.22
2022-12-25T05:55:03.774Z,6.90
2022-12-25T05:57:35.752Z,7.18
2022-12-25T06:00:28.194Z,7.85
2022-12-25T06:02:56.453Z,7.90
2022-12-25T06:05:59.012Z,7.40
2022-12-25T06:09:06.536Z,7.32
2022-12-25T06:11:53.133Z,7.63
2022-12-25T06:14:38.443Z,7.22
2022-12-25T06:17:26.364Z,7.70
2022-12-25T06:20:05.418Z,7.35
2022-12-25T06:22:48.450Z,7.55
2022-12-25T06:28:02.398Z,8.50
2022-12-25T06:30:30.407Z,9.77
2022-12-25T06:33:08.332Z,12.23
2022-12-25T06:35:56.301Z,11.60
2022-12-25T06:38:49.905Z,8.32
2022-12-25T06:41:30.893Z,8.98
2022-12-25T06:44:26.078Z,8.55
2022-12-25T06:46:59.603Z,8.00
2022-12-25T06:49:35.893Z,8.10
2022-12-25T06:52:06.604Z,7.93
2022-12-25T06:54:50.722Z,8.57
2022-12-25T06:58:15.450Z,7.65
2022-12-25T07:01:19.519Z,7.60
2022-12-25T07:04:02.368Z,7.53
2022-12-25T07:06:44.958Z,6.85
2022-12-25T07:09:19.046Z,7.10
2022-12-25T07:11:55.535Z,7.32
2022-12-25T07:14:41.944Z,7.93
2022-12-25T07:17:16.515Z,7.15
2022-12-25T07:19:59.704Z,7.55
2022-12-25T07:22:32.852Z,7.07
2022-12-25T07:25:12.481Z,7.88
2022-12-25T07:27:46.695Z,7.63
2022-12-25T07:30:19.609Z,7.22
2022-12-25T07:32:59.705Z,8.18
2022-12-25T07:35:45.870Z,8.30
2022-12-25T07:38:31.914Z,9.02
2022-12-25T07:44:13.321Z,9.20
2022-12-25T07:46:56.654Z,9.45
2022-12-25T07:49:27.186Z,9.25
2022-12-25T07:52:02.004Z,10.93
2022-12-25T07:54:42.194Z,9.70
2022-12-25T07:57:19.618Z,9.95
2022-12-25T08:00:02.585Z,11.00
2022-12-25T08:03:14.786Z,11.25
2022-12-25T08:05:58.885Z,10.00
2022-12-25T08:09:14.394Z,10.50
2022-12-25T08:11:58.593Z,11.55
2022-12-25T08:14:50.833Z,11.18
2022-12-25T08:17:36.530Z,11.93
2022-12-25T08:24:06.179Z,13.45
2022-12-25T08:28:09.162Z,11.75
2022-12-25T08:31:07.973Z,12.30
2022-12-25T08:34:30.817Z,12.52
2022-12-25T08:42:01.741Z,12.02
2022-12-25T08:44:24.981Z,12.80
2022-12-25T08:47:06.376Z,13.23
2022-12-25T08:49:45.451Z,14.35
2022-12-25T08:52:40.563Z,14.52
2022-12-25T08:55:56.102Z,13.63
2022-12-25T08:58:58.251Z,13.25
2022-12-25T09:01:59.665Z,13.32
2022-12-25T09:05:16.044Z,12.93
2022-12-25T09:11:45.526Z,13.25
2022-12-25T09:14:59.631Z,13.23
2022-12-25T09:17:55.612Z,12.32
2022-12-25T09:20:42.019Z,13.23
2022-12-25T09:23:30.711Z,13.93
2022-12-25T09:26:32.547Z,13.40
2022-12-25T09:29:36.496Z,12.35
2022-12-25T09:35:46.964Z,12.18
2022-12-25T09:38:29.553Z,11.82
2022-12-25T09:41:08.913Z,12.75
2022-12-25T09:43:57.792Z,12.35
2022-12-25T09:47:02.426Z,12.88
2022-12-25T09:56:26.787Z,12.32
2022-12-25T09:59:37.153Z,13.20
2022-12-25T10:02:46.139Z,12.77
2022-12-25T10:05:59.923Z,13.00
2022-12-25T10:09:42.444Z,12.85
2022-12-25T10:14:34.773Z,13.40
2022-12-25T10:21:32.858Z,14.05
2022-12-25T10:28:12.594Z,12.70
2022-12-25T10:32:21.137Z,13.90
2022-12-25T10:35:26.189Z,14.90
2022-12-25T10:45:56.869Z,14.20
2022-12-25T10:48:58.856Z,14.02
2022-12-25T10:55:30.977Z,13.77
2022-12-25T11:01:59.689Z,14.65
2022-12-25T11:11:47.737Z,14.88
2022-12-25T11:15:02.870Z,15.38
2022-12-25T11:17:38.655Z,14.93
2022-12-25T11:24:21.178Z,14.40
2022-12-25T11:34:17.375Z,13.80
2022-12-25T11:37:43.473Z,14.85
2022-12-25T11:41:19.645Z,12.85
2022-12-25T11:48:13.410Z,12.60
2022-12-25T11:51:25.449Z,11.68
2022-12-25T11:57:58.509Z,11.20
2022-12-25T12:01:40.454Z,11.75
2022-12-25T12:04:57.350Z,11.35
2022-12-25T12:08:00.933Z,12.60
2022-12-25T12:11:32.106Z,11.65
2022-12-25T12:18:08.917Z,11.13
2022-12-25T12:21:34.701Z,11.30
2022-12-25T12:28:29.447Z,11.02
2022-12-25T12:32:08.113Z,11.00
2022-12-25T12:35:07.557Z,11.57
2022-12-25T12:38:21.408Z,12.23
2022-12-25T12:48:12.271Z,12.18
2022-12-25T12:51:49.989Z,13.65
2022-12-25T12:55:29.297Z,12.85
2022-12-25T12:59:19.565Z,12.10
2022-12-25T13:03:20.990Z,12.00
2022-12-25T13:08:04.221Z,12.13
2022-12-25T13:10:43.846Z,11.63
2022-12-25T13:13:53.228Z,11.80
2022-12-25T13:20:55.985Z,11.70
2022-12-25T13:23:58.978Z,11.88
2022-12-25T13:26:39.154Z,12.05
2022-12-25T13:29:54.493Z,12.95
2022-12-25T13:32:50.561Z,11.50
2022-12-25T13:35:36.299Z,12.43
2022-12-25T13:38:29.318Z,13.68
2022-12-25T13:41:48.178Z,14.02
2022-12-25T13:45:04.613Z,13.23
2022-12-25T13:48:31.145Z,12.60
2022-12-25T13:51:22.887Z,12.30
2022-12-25T13:54:07.305Z,12.27
2022-12-25T13:56:46.805Z,11.93
2022-12-25T13:59:22.947Z,11.98
2022-12-25T14:02:13.540Z,12.07
2022-12-25T14:05:02.776Z,12.38
2022-12-25T14:07:43.268Z,11.90
2022-12-25T14:10:40.624Z,12.65
2022-12-25T14:13:46.262Z,12.73
2022-12-25T14:16:49.079Z,13.00
2022-12-25T14:19:35.397Z,13.75
2022-12-25T14:22:31.340Z,12.40
2022-12-25T14:28:37.103Z,11.85
2022-12-25T14:31:19.953Z,12.50
2022-12-25T14:34:03.352Z,11.73
2022-12-25T14:36:45.164Z,12.32
2022-12-25T14:40:07.052Z,10.50
2022-12-25T14:43:21.304Z,9.35
2022-12-25T14:46:06.109Z,9.25
2022-12-25T14:49:02.522Z,9.35
2022-12-25T14:51:54.477Z,9.75
2022-12-25T14:54:46.962Z,9.35
2022-12-25T14:57:55.566Z,9.57
2022-12-25T15:00:43.595Z,10.63
2022-12-25T15:03:39.794Z,13.32
2022-12-25T15:06:34.378Z,14.18
2022-12-25T15:09:21.912Z,14.10
2022-12-25T15:15:02.933Z,13.02
2022-12-25T15:17:38.676Z,12.85
2022-12-25T15:20:36.400Z,11.43
2022-12-25T15:23:42.321Z,12.10
2022-12-25T15:26:21.978Z,11.40
2022-12-25T15:29:06.771Z,12.85
2022-12-25T15:31:55.096Z,14.38
2022-12-25T15:34:50.452Z,12.77
2022-12-25T15:38:27.309Z,11.50
2022-12-25T15:44:51.925Z,11.07
2022-12-25T15:47:57.983Z,10.90
2022-12-25T15:51:06.176Z,11.32
2022-12-25T15:54:43.284Z,11.23
2022-12-25T16:01:15.371Z,11.27
2022-12-25T16:04:21.502Z,11.02
2022-12-25T16:10:50.262Z,13.43
2022-12-25T16:14:09.832Z,13.95
2022-12-25T16:18:07.706Z,13.75
2022-12-25T16:20:43.144Z,15.00
2022-12-25T16:26:53.518Z,14.50
2022-12-25T16:29:45.088Z,15.05
2022-12-25T16:32:37.002Z,16.52
2022-12-25T16:36:26.941Z,16.77
2022-12-25T16:39:41.927Z,16.33
2022-12-25T16:43:05.297Z,16.55
2022-12-25T16:50:11.374Z,17.48
2022-12-25T16:53:16.216Z,15.77
2022-12-25T16:56:32.864Z,16.90
2022-12-25T16:59:38.367Z,15.23
2022-12-25T17:02:48.928Z,16.35
2022-12-25T17:08:34.009Z,15.93
2022-12-25T17:12:49.934Z,16.17
2022-12-25T17:15:01.656Z,15.68
2022-12-25T17:21:18.717Z,17.60
2022-12-25T17:24:47.727Z,16.48
2022-12-25T17:27:53.760Z,15.13
2022-12-25T17:31:18.283Z,14.90
2022-12-25T17:37:58.740Z,17.42
2022-12-25T17:41:29.809Z,16.20
2022-12-25T17:44:41.587Z,17.08
2022-12-25T17:47:35.935Z,16.05
2022-12-25T17:50:41.435Z,15.93
2022-12-25T17:58:24.721Z,14.52
2022-12-25T18:01:19.472Z,15.95
2022-12-25T18:03:58.697Z,16.13
2022-12-25T18:13:25.624Z,16.88
2022-12-25T18:19:32.790Z,13.43
2022-12-25T18:22:58.381Z,14.77
2022-12-25T18:26:30.343Z,16.02
2022-12-25T18:29:46.853Z,14.82
2022-12-25T18:35:57.463Z,14.98
2022-12-25T18:42:18.530Z,13.95
2022-12-25T18:45:02.803Z,14.73
2022-12-25T18:47:44.052Z,14.20
2022-12-25T18:50:27.819Z,14.75
2022-12-25T18:54:03.941Z,14.65
2022-12-25T19:00:47.505Z,16.20
2022-12-25T19:03:42.908Z,16.77
2022-12-25T19:06:58.257Z,16.40
2022-12-25T19:09:58.384Z,16.38
2022-12-25T19:12:44.799Z,16.90
2022-12-25T19:15:26.571Z,15.73
2022-12-25T19:18:19.395Z,16.50
2022-12-25T19:21:33.643Z,15.45
2022-12-25T19:24:24.671Z,15.05
2022-12-25T19:27:44.730Z,14.68
2022-12-25T19:30:09.814Z,15.52
2022-12-25T19:32:45.434Z,14.90
2022-12-25T19:35:54.792Z,14.27
2022-12-25T19:42:39.489Z,13.65
2022-12-25T19:45:08.170Z,14.18
2022-12-25T19:47:56.251Z,16.38
2022-12-25T19:50:46.531Z,17.20
2022-12-25T19:53:34.860Z,15.32
2022-12-25T19:56:07.638Z,15.38
2022-12-25T19:58:44.525Z,16.30
2022-12-25T20:01:37.550Z,16.52
2022-12-25T20:04:27.098Z,17.20
2022-12-25T20:07:57.775Z,16.13
2022-12-25T20:10:25.731Z,15.95
2022-12-25T20:13:32.046Z,17.98
2022-12-25T20:16:28.436Z,18.73
2022-12-25T20:19:14.129Z,20.75
2022-12-25T20:22:20.272Z,19.35
2022-12-25T20:25:16.296Z,19.85
2022-12-25T20:28:25.444Z,20.40
2022-12-25T20:31:57.543Z,21.77
2022-12-25T20:34:57.140Z,21.50
2022-12-25T20:37:41.351Z,22.77
2022-12-25T20:41:24.558Z,20.77
2022-12-25T20:43:53.048Z,21.90
2022-12-25T20:47:05.886Z,23.38
2022-12-25T20:50:15.280Z,23.27
2022-12-25T20:53:27.560Z,23.73
2022-12-25T20:56:40.537Z,23.88
2022-12-25T21:00:02.116Z,23.33
2022-12-25T21:03:11.120Z,22.77
2022-12-25T21:06:35.233Z,22.80
2022-12-25T21:12:37.024Z,24.85
2022-12-25T21:16:00.546Z,25.33
2022-12-25T21:19:27.542Z,27.20
2022-12-25T21:22:51.893Z,27.27
2022-12-25T21:29:40.541Z,27.73
2022-12-25T21:38:49.845Z,30.10
2022-12-25T21:41:58.954Z,27.02
2022-12-25T21:45:25.290Z,25.67
2022-12-25T21:48:34.719Z,25.38
2022-12-25T21:52:16.259Z,25.92
2022-12-25T21:58:10.659Z,27.05
2022-12-25T22:07:39.117Z,26.30
2022-12-25T22:11:45.101Z,26.23
2022-12-25T22:15:03.449Z,25.52
2022-12-25T22:18:05.363Z,26.30
2022-12-25T22:27:37.382Z,26.35
2022-12-25T22:30:35.953Z,24.40
2022-12-25T22:36:36.571Z,25.85
2022-12-25T22:43:37.107Z,22.83
2022-12-25T22:47:30.614Z,24.23
2022-12-25T22:50:59.213Z,22.95
2022-12-25T22:54:00.296Z,25.48
2022-12-25T22:58:37.393Z,25.20
2022-12-25T23:01:07.239Z,24.40
2022-12-25T23:08:03.796Z,22.58
2022-12-25T23:11:08.217Z,24.27
2022-12-25T23:14:16.046Z,23.02
2022-12-25T23:17:41.453Z,23.42
2022-12-25T23:21:02.799Z,21.23
2022-12-25T23:28:11.823Z,20.08
2022-12-25T23:30:59.087Z,19.75
2022-12-25T23:34:20.839Z,19.40
2022-12-25T23:41:42.037Z,17.05
2022-12-25T23:50:07.384Z,15.00
2022-12-25T23:53:40.599Z,13.35
